新東京国際空港の過去48時間の天気

新東京国際空港 (Tokyo/New Tokyo Intl)

現在時刻: 7/16 15:28 JST (7/16 06:28 UTC) 以下の時間は現地時間です。

過去48時間のMETAR気象情報
時間 風向 風速(m/s) 視程 気温(℃) 湿度(%) 気圧(hPa) 天気現象
16 15:00 南南西 5 10km以上 34 60 1010
16 14:30 西南西 4 10km以上 34 60 1010
16 14:00 西南西 4 10km以上 35 60 1010
16 13:30 西南西 4 10km以上 35 60 1010
16 13:00 南西 3 10km以上 35 63 1010
16 12:30 4 10km以上 35 63 1011
16 12:00 南西 4 10km以上 34 63 1011
16 11:30 西南西 3 10km以上 33 67 1011
16 11:00 西南西 3 10km以上 32 71 1011
16 10:30 南南西 4 10km以上 32 71 1011
16 10:00 南西 4 10km以上 32 71 1011
16 09:30 西 4 10km以上 32 75 1011
16 09:00 南南西 4 10km以上 31 75 1012
16 08:30 南西 4 10km以上 31 75 1012
16 08:00 南西 3 10km以上 30 79 1012
16 07:30 南西 4 10km以上 29 84 1012
16 07:00 南南西 3 10km以上 28 89 1012
16 06:30 南南西 2 9000m 27 89 1012
16 06:00 3 7000m 26 94 1012
16 05:30 南南東 1 6000m 24 100 1012
16 05:00 南南東 2 6000m 24 100 1012
16 04:30 2 5000m 24 94 1011 もや
16 04:00 南南東 2 8000m 24 100 1011
16 03:30 2 8000m 24 100 1011
16 03:00 2 8000m 25 94 1011
16 02:30 2 9000m 25 94 1011
16 02:00 2 9000m 25 94 1011
16 01:30 3 10km以上 25 94 1011
16 01:00 南南東 2 10km以上 24 100 1011
16 00:30 2 10km以上 25 94 1012
16 00:00 1 10km以上 25 94 1012
15 23:30 2 10km以上 25 94 1012
15 23:00 2 10km以上 25 94 1012
15 22:30 3 10km以上 26 89 1012
15 22:00 南南東 2 10km以上 25 94 1012
15 21:30 2 10km以上 26 89 1012
15 21:00 南南東 2 10km以上 26 89 1012
15 20:30 2 10km以上 27 84 1012
15 20:00 3 10km以上 27 79 1011
15 19:30 3 10km以上 28 79 1011
15 19:00 4 10km以上 29 74 1011
15 18:30 5 10km以上 30 70 1011
15 18:00 南南東 5 10km以上 31 66 1011
15 17:30 南南東 6 10km以上 31 70 1010
15 17:00 南南東 6 10km以上 32 67 1010
15 16:30 南南東 6 10km以上 32 67 1010
15 16:00 南東 5 10km以上 31 70 1010
15 15:30 南東 5 10km以上 32 71 1010
15 15:00 南南東 6 10km以上 32 67 1010
15 14:30 南南東 7 10km以上 32 67 1010
15 14:00 南南東 6 10km以上 32 67 1011
15 13:30 南東 8 10km以上 32 71 1011
15 13:00 南南東 6 10km以上 32 71 1011
15 12:30 南東 5 10km以上 32 71 1011
15 12:00 南南東 5 10km以上 32 71 1011
15 11:30 東南東 5 10km以上 32 71 1012
15 11:00 南東 4 10km以上 31 75 1012
15 10:30 南東 4 10km以上 32 71 1012
15 10:00 不定 2 10km以上 31 66 1012
15 09:30 2 10km以上 31 70 1013
15 09:00 南南東 2 10km以上 30 79 1012
15 08:30 南南西 2 10km以上 29 84 1013
15 08:00 不定 2 10km以上 29 84 1013
15 07:30 南南西 2 9000m 27 89 1013
15 07:18 南南西 2 8000m 27 94 1013
15 07:00 西南西 2 5000m 27 94 1013 もや
15 06:30 南南西 2 5000m 26 100 1012 もや
15 06:00 不定 1 4000m 25 100 1012 もや
15 05:44 不定 1 3200m 26 94 1012 もや
15 05:30 不定 1 3000m 25 100 1012 もや
15 05:00 不定 1 3000m 25 100 1012 もや
15 04:30 不定 1 2400m 25 100 1012 もや
RJAA 160600Z 21009KT 180V250 9999 FEW035 BKN/// 34/25 Q1010 NOSIG RMK 1CU035 A2984
RJAA 160530Z 24007KT 200V280 9999 FEW035 BKN/// 34/25 Q1010 BECMG 20008KT
RJAA 160500Z 24007KT 190V290 9999 FEW030 BKN/// 35/26 Q1010 BECMG 20008KT
RJAA 160430Z 24007KT 200V290 9999 FEW030 BKN/// 35/26 Q1010 BECMG 20008KT RMK 1CU030 A2985
RJAA 160400Z 22006KT 160V270 9999 FEW030 BKN/// 35/27 Q1010 NOSIG
RJAA 160330Z 17007KT 130V230 9999 FEW030 BKN/// 35/27 Q1011 NOSIG RMK 1CU030 A2985
RJAA 160300Z 22007KT 160V270 9999 FEW025 BKN/// 34/26 Q1011 NOSIG RMK 1CU025 A2986
RJAA 160230Z 25006KT 210V310 9999 FEW025 BKN/// 33/26 Q1011 NOSIG
RJAA 160200Z 25005KT 210V310 9999 SCT025 BKN/// 32/26 Q1011 NOSIG RMK 3CU025 A2987
RJAA 160130Z 21007KT 180V280 9999 FEW025 BKN/// 32/26 Q1011 BECMG 25007KT
RJAA 160100Z 23007KT 190V270 9999 SCT025 BKN/// 32/26 Q1011 BECMG 25007KT RMK 3CU025 A2988
RJAA 160030Z 26007KT 220V300 9999 FEW020 BKN/// 32/27 Q1011 NOSIG
RJAA 160000Z 21007KT 170V240 9999 FEW015 BKN/// 31/26 Q1012 NOSIG RMK 1CU015 A2988
RJAA 152330Z 22008KT 170V250 9999 FEW015 BKN/// 31/26 Q1012 NOSIG
RJAA 152300Z 22006KT 160V250 9999 FEW015 BKN/// 30/26 Q1012 NOSIG
RJAA 152230Z 22007KT 180V250 9999 FEW013 BKN/// 29/26 Q1012 NOSIG
RJAA 152200Z 21005KT 170V250 CAVOK 28/26 Q1012 NOSIG RMK A2990
RJAA 152130Z 20004KT 160V240 9000 NSC 27/25 Q1012 NOSIG RMK A2989
RJAA 152100Z 18005KT 7000 NSC 26/25 Q1012 NOSIG RMK A2989
RJAA 152030Z 16002KT 6000 NSC 24/24 Q1012 NOSIG RMK A2988
RJAA 152000Z 16003KT 6000 NSC 24/24 Q1012 NOSIG RMK A2988
RJAA 151930Z 17003KT 5000 BR FEW030 BKN/// 24/23 Q1011 NOSIG
RJAA 151900Z 16003KT 8000 FEW030 BKN/// 24/24 Q1011 NOSIG RMK 1CU030 A2987
RJAA 151830Z 17003KT 8000 FEW030 BKN/// 24/24 Q1011 NOSIG RMK 1CU030 A2986
RJAA 151800Z 18003KT 8000 FEW030 BKN/// 25/24 Q1011 NOSIG RMK 1CU030 A2986
RJAA 151730Z 19003KT 9000 FEW030 BKN/// 25/24 Q1011 NOSIG
RJAA 151700Z 18004KT 9000 FEW030 BKN/// 25/24 Q1011 NOSIG
RJAA 151630Z 17005KT 9999 FEW030 BKN/// 25/24 Q1011 NOSIG
RJAA 151600Z 16004KT 9999 FEW030 BKN/// 24/24 Q1011 NOSIG RMK 1CU030 A2988
RJAA 151530Z 18003KT 9999 FEW030 SCT/// 25/24 Q1012 NOSIG RMK 1CU030 A2988
RJAA 151500Z 17002KT 9999 FEW030 BKN/// 25/24 Q1012 NOSIG RMK 1CU030 A2989
RJAA 151430Z 18003KT 160V220 9999 FEW030 SCT/// 25/24 Q1012 NOSIG
RJAA 151400Z 17004KT 9999 FEW030 SCT/// 25/24 Q1012 NOSIG RMK 1CU030 A2989
RJAA 151330Z 18005KT 9999 FEW030 26/24 Q1012 NOSIG RMK 1CU030 A2989
RJAA 151300Z 16003KT 9999 FEW030 25/24 Q1012 NOSIG RMK 1CU030 A2990
RJAA 151230Z 17003KT 9999 FEW030 26/24 Q1012 NOSIG RMK 1CU030 A2989
RJAA 151200Z 16004KT 9999 FEW030 26/24 Q1012 NOSIG RMK 1CU030 A2989
RJAA 151130Z 17004KT 140V210 9999 FEW030 27/24 Q1012 NOSIG RMK 1CU030 A2989
RJAA 151100Z 18006KT 9999 FEW030 27/23 Q1011 NOSIG RMK 1CU030 A2988
RJAA 151030Z 18005KT 9999 FEW035 28/24 Q1011 NOSIG RMK 1CU035 A2987
RJAA 151000Z 17008KT 9999 FEW035 29/24 Q1011 NOSIG RMK 1CU035 A2986
RJAA 150930Z 17009KT 9999 FEW035 30/24 Q1011 NOSIG RMK 1CU035 A2986
RJAA 150900Z 16009KT 9999 FEW035 31/24 Q1011 NOSIG RMK 1CU035 A2986
RJAA 150830Z 16011KT 9999 FEW035 31/25 Q1010 NOSIG RMK 1CU035 A2984
RJAA 150800Z 16011KT 9999 FEW035 32/25 Q1010 NOSIG RMK 1CU035 A2983
RJAA 150730Z 15011KT 120V180 9999 FEW035 32/25 Q1010 NOSIG RMK 1CU035 A2984
RJAA 150700Z 13010KT 9999 FEW035 SCT040 31/25 Q1010 NOSIG RMK 1CU035 3CU040 A2984
RJAA 150630Z 14010KT 9999 SCT035 32/26 Q1010 NOSIG RMK 3CU035 A2984
RJAA 150600Z 15012KT 9999 FEW025 32/25 Q1010 NOSIG RMK 1CU025 A2984
RJAA 150530Z 16013KT 9999 FEW025 32/25 Q1010 NOSIG RMK 1CU025 A2985
RJAA 150500Z 16012KT 130V190 9999 FEW025 32/25 Q1011 NOSIG RMK 1CU025 A2986
RJAA 150430Z 14015KT 9999 FEW025 32/26 Q1011 NOSIG RMK 1CU025 A2986
RJAA 150400Z 16012KT 9999 FEW020 SCT030 32/26 Q1011 NOSIG RMK 1CU020 3CU030 A2987
RJAA 150330Z 13010KT 090V160 9999 FEW020 SCT030 32/26 Q1011 NOSIG RMK 1CU020 4CU030 A2987
RJAA 150300Z 15009KT 9999 FEW020 SCT030 32/26 Q1011 NOSIG RMK 1CU020 4CU030 A2988
RJAA 150230Z 12010KT 100V160 9999 FEW020 SCT030 32/26 Q1012 NOSIG RMK 1CU020 4CU030 A2989
RJAA 150200Z 13008KT 9999 FEW020 SCT030 31/26 Q1012 NOSIG RMK 1CU020 4CU030 A2990
RJAA 150130Z 13007KT 090V160 9999 FEW020 SCT030 32/26 Q1012 NOSIG RMK 1CU020 3CU030 A2990
RJAA 150100Z VRB03KT 9999 FEW020 SCT030 31/24 Q1012 BECMG 18005KT RMK 1CU020 3CU030 A2991
RJAA 150030Z 19004KT 130V270 9999 FEW015 SCT025 31/25 Q1013 NOSIG RMK 1CU015 3CU025 A2991
RJAA 150000Z 16003KT 060V230 9999 FEW015 SCT020 30/26 Q1012 NOSIG RMK 1CU015 4CU020 A2991
RJAA 142330Z 21004KT 160V270 9999 FEW010 BKN015 29/26 Q1013 NOSIG RMK 1CU010 5CU015 A2991
RJAA 142300Z VRB03KT 9999 FEW009 SCT012 29/26 Q1013 BECMG 22005KT
RJAA 142230Z 21004KT 150V290 9000 FEW008 SCT010 27/25 Q1013 NOSIG RMK 1ST008 4CU010 A2991
RJAA 142218Z 21004KT 150V260 8000 FEW005 SCT008 BKN010 27/26 Q1013 RMK 1ST005 3ST008 5CU010 A2991
RJAA 142200Z 25003KT 200V280 5000 BR FEW004 SCT006 BKN008 27/26 Q1013 BECMG 22005KT FEW015 SCT030 RMK 1ST004 3ST006 5ST008 A2991
RJAA 142130Z 21004KT 180V250 5000 BR FEW003 SCT007 26/26 Q1012 NOSIG RMK 2ST003 4ST007 A2990
RJAA 142100Z VRB02KT 4000 BR FEW002 SCT006 25/25 Q1012 BECMG TL2130 6000 NSW RMK 2ST002 4ST006 A2990
RJAA 142044Z VRB02KT 3200 BR FEW002 SCT004 BKN006 26/25 Q1012 RMK 2ST002 3ST004 5ST006 A2990
RJAA 142030Z VRB01KT 3000 BR FEW002 SCT004 BKN006 25/25 Q1012 BECMG TL2130 6000 NSW FEW002 SCT007 RMK 2ST002 3ST004 6ST006 A2990
RJAA 142000Z VRB01KT 3000 BR FEW002 SCT003 BKN004 25/25 Q1012 BECMG TL2130 6000 NSW FEW002 SCT007
RJAA 141930Z VRB01KT 2400 BR FEW002 BKN003 BKN004 25/25 Q1012 BECMG 6000 NSW FEW002 SCT007 RMK 2ST002 5ST003 7ST004 A2990